sensor_id;sensor_type;location;lat;lon;timestamp;pressure;altitude;pressure_sealevel;temperature;humidity
25664;BME280;13522;50.018;20.014;2022-11-25T00:02:23;98856.27;;;1.06;100.00
25664;BME280;13522;50.018;20.014;2022-11-25T00:05:35;98857.97;;;1.07;100.00
25664;BME280;13522;50.018;20.014;2022-11-25T00:08:48;98858.88;;;1.06;100.00
25664;BME280;13522;50.018;20.014;2022-11-25T00:12:02;98869.25;;;1.07;100.00
25664;BME280;13522;50.018;20.014;2022-11-25T00:15:15;98857.70;;;1.11;100.00
25664;BME280;13522;50.018;20.014;2022-11-25T00:18:26;98851.47;;;1.14;100.00
25664;BME280;13522;50.018;20.014;2022-11-25T00:21:38;98862.69;;;1.16;100.00
25664;BME280;13522;50.018;20.014;2022-11-25T00:24:50;98870.45;;;1.17;100.00
25664;BME280;13522;50.018;20.014;2022-11-25T00:28:01;98877.20;;;1.21;100.00
25664;BME280;13522;50.018;20.014;2022-11-25T00:31:15;98877.91;;;1.25;100.00
25664;BME280;13522;50.018;20.014;2022-11-25T00:34:28;98871.49;;;1.30;100.00
25664;BME280;13522;50.018;20.014;2022-11-25T00:37:40;98874.88;;;1.32;100.00
25664;BME280;13522;50.018;20.014;2022-11-25T00:40:54;98881.11;;;1.30;100.00
25664;BME280;13522;50.018;20.014;2022-11-25T00:44:18;98882.95;;;1.28;100.00
25664;BME280;13522;50.018;20.014;2022-11-25T00:47:46;98870.64;;;1.30;100.00
25664;BME280;13522;50.018;20.014;2022-11-25T00:50:58;98871.83;;;1.24;100.00
25664;BME280;13522;50.018;20.014;2022-11-25T00:54:12;98879.06;;;1.35;100.00
25664;BME280;13522;50.018;20.014;2022-11-25T00:57:24;98878.25;;;1.34;100.00
25664;BME280;13522;50.018;20.014;2022-11-25T01:00:37;98873.84;;;1.35;100.00
25664;BME280;13522;50.018;20.014;2022-11-25T01:03:50;98881.44;;;1.39;100.00
25664;BME280;13522;50.018;20.014;2022-11-25T01:07:03;98885.67;;;1.42;100.00
25664;BME280;13522;50.018;20.014;2022-11-25T01:10:15;98887.20;;;1.46;100.00
25664;BME280;13522;50.018;20.014;2022-11-25T01:13:27;98889.63;;;1.49;100.00
25664;BME280;13522;50.018;20.014;2022-11-25T01:16:38;98891.24;;;1.51;100.00
25664;BME280;13522;50.018;20.014;2022-11-25T01:19:50;98889.48;;;1.52;100.00
25664;BME280;13522;50.018;20.014;2022-11-25T01:23:02;98891.09;;;1.54;100.00
25664;BME280;13522;50.018;20.014;2022-11-25T01:26:15;98883.91;;;1.58;100.00
25664;BME280;13522;50.018;20.014;2022-11-25T01:29:29;98890.23;;;1.54;100.00
25664;BME280;13522;50.018;20.014;2022-11-25T01:32:41;98884.06;;;1.55;100.00
25664;BME280;13522;50.018;20.014;2022-11-25T01:35:53;98892.61;;;1.58;100.00
25664;BME280;13522;50.018;20.014;2022-11-25T01:39:04;98891.58;;;1.61;100.00
25664;BME280;13522;50.018;20.014;2022-11-25T01:42:17;98889.72;;;1.63;100.00
25664;BME280;13522;50.018;20.014;2022-11-25T01:45:38;98880.10;;;1.63;100.00
25664;BME280;13522;50.018;20.014;2022-11-25T01:48:53;98883.57;;;1.64;100.00
25664;BME280;13522;50.018;20.014;2022-11-25T01:52:12;98879.44;;;1.60;100.00
25664;BME280;13522;50.018;20.014;2022-11-25T01:55:29;98879.25;;;1.63;100.00
25664;BME280;13522;50.018;20.014;2022-11-25T01:58:42;98879.09;;;1.66;100.00
25664;BME280;13522;50.018;20.014;2022-11-25T02:01:57;98879.91;;;1.66;100.00
25664;BME280;13522;50.018;20.014;2022-11-25T02:05:11;98882.47;;;1.68;100.00
25664;BME280;13522;50.018;20.014;2022-11-25T02:08:27;98883.23;;;1.70;100.00
25664;BME280;13522;50.018;20.014;2022-11-25T02:11:43;98882.38;;;1.69;100.00
25664;BME280;13522;50.018;20.014;2022-11-25T02:14:57;98880.52;;;1.71;100.00
25664;BME280;13522;50.018;20.014;2022-11-25T02:18:17;98880.62;;;1.70;100.00
25664;BME280;13522;50.018;20.014;2022-11-25T02:21:33;98877.23;;;1.68;100.00
25664;BME280;13522;50.018;20.014;2022-11-25T02:25:16;98872.00;;;1.68;100.00
25664;BME280;13522;50.018;20.014;2022-11-25T02:28:31;98870.39;;;1.65;100.00
25664;BME280;13522;50.018;20.014;2022-11-25T02:31:44;98876.48;;;1.66;100.00
25664;BME280;13522;50.018;20.014;2022-11-25T02:34:59;98873.86;;;1.66;100.00
25664;BME280;13522;50.018;20.014;2022-11-25T02:38:14;98869.82;;;1.60;100.00
25664;BME280;13522;50.018;20.014;2022-11-25T02:41:30;98877.91;;;1.56;100.00
25664;BME280;13522;50.018;20.014;2022-11-25T02:44:44;98867.35;;;1.57;100.00
25664;BME280;13522;50.018;20.014;2022-11-25T02:47:56;98867.54;;;1.54;100.00
25664;BME280;13522;50.018;20.014;2022-11-25T02:51:09;98870.40;;;1.50;100.00
25664;BME280;13522;50.018;20.014;2022-11-25T02:54:24;98873.02;;;1.50;100.00
25664;BME280;13522;50.018;20.014;2022-11-25T02:57:38;98884.39;;;1.49;100.00
25664;BME280;13522;50.018;20.014;2022-11-25T03:00:50;98886.02;;;1.51;100.00
25664;BME280;13522;50.018;20.014;2022-11-25T03:04:02;98880.77;;;1.51;100.00
25664;BME280;13522;50.018;20.014;2022-11-25T03:07:15;98865.92;;;1.52;100.00
25664;BME280;13522;50.018;20.014;2022-11-25T03:10:27;98862.97;;;1.58;100.00
25664;BME280;13522;50.018;20.014;2022-11-25T03:13:40;98866.16;;;1.63;100.00
25664;BME280;13522;50.018;20.014;2022-11-25T03:16:53;98866.77;;;1.68;100.00
25664;BME280;13522;50.018;20.014;2022-11-25T03:20:07;98870.91;;;1.72;100.00
25664;BME280;13522;50.018;20.014;2022-11-25T03:23:20;98887.37;;;1.74;100.00
25664;BME280;13522;50.018;20.014;2022-11-25T03:26:32;98880.18;;;1.78;100.00
25664;BME280;13522;50.018;20.014;2022-11-25T03:29:45;98883.46;;;1.81;100.00
25664;BME280;13522;50.018;20.014;2022-11-25T03:32:58;98888.70;;;1.81;100.00
25664;BME280;13522;50.018;20.014;2022-11-25T03:36:11;98895.70;;;1.81;100.00
25664;BME280;13522;50.018;20.014;2022-11-25T03:39:25;98896.65;;;1.80;100.00
25664;BME280;13522;50.018;20.014;2022-11-25T03:42:38;98894.79;;;1.82;100.00
25664;BME280;13522;50.018;20.014;2022-11-25T03:45:51;98900.88;;;1.82;100.00
25664;BME280;13522;50.018;20.014;2022-11-25T03:49:03;98905.92;;;1.85;100.00
25664;BME280;13522;50.018;20.014;2022-11-25T03:52:15;98905.92;;;1.85;100.00
25664;BME280;13522;50.018;20.014;2022-11-25T03:55:27;98903.97;;;1.89;100.00
25664;BME280;13522;50.018;20.014;2022-11-25T03:58:39;98905.77;;;1.88;100.00
25664;BME280;13522;50.018;20.014;2022-11-25T04:01:52;98907.30;;;1.92;100.00
25664;BME280;13522;50.018;20.014;2022-11-25T04:05:05;98908.78;;;1.96;100.00
25664;BME280;13522;50.018;20.014;2022-11-25T04:08:17;98905.24;;;1.97;100.00
25664;BME280;13522;50.018;20.014;2022-11-25T04:11:30;98908.62;;;1.99;100.00
25664;BME280;13522;50.018;20.014;2022-11-25T04:14:53;98909.28;;;2.03;100.00
25664;BME280;13522;50.018;20.014;2022-11-25T04:18:04;98909.13;;;2.06;100.00
25664;BME280;13522;50.018;20.014;2022-11-25T04:21:17;98906.41;;;2.07;100.00
25664;BME280;13522;50.018;20.014;2022-11-25T04:24:29;98911.46;;;2.10;100.00
25664;BME280;13522;50.018;20.014;2022-11-25T04:27:42;98906.06;;;2.13;100.00
25664;BME280;13522;50.018;20.014;2022-11-25T04:30:56;98913.73;;;2.16;100.00
25664;BME280;13522;50.018;20.014;2022-11-25T04:34:08;98916.20;;;2.19;100.00
25664;BME280;13522;50.018;20.014;2022-11-25T04:37:22;98908.15;;;2.22;100.00
25664;BME280;13522;50.018;20.014;2022-11-25T04:40:35;98915.09;;;2.23;100.00
25664;BME280;13522;50.018;20.014;2022-11-25T04:43:49;98922.77;;;2.26;100.00
25664;BME280;13522;50.018;20.014;2022-11-25T04:47:01;98925.22;;;2.29;100.00
25664;BME280;13522;50.018;20.014;2022-11-25T04:50:17;98927.84;;;2.29;100.00
25664;BME280;13522;50.018;20.014;2022-11-25T04:53:34;98929.61;;;2.29;100.00
25664;BME280;13522;50.018;20.014;2022-11-25T04:56:48;98928.59;;;2.31;100.00
25664;BME280;13522;50.018;20.014;2022-11-25T05:00:03;98934.75;;;2.30;100.00
25664;BME280;13522;50.018;20.014;2022-11-25T05:03:16;98940.94;;;2.29;100.00
25664;BME280;13522;50.018;20.014;2022-11-25T05:06:29;98947.09;;;2.28;100.00
25664;BME280;13522;50.018;20.014;2022-11-25T05:09:42;98947.09;;;2.28;100.00
25664;BME280;13522;50.018;20.014;2022-11-25T05:12:56;98947.95;;;2.29;100.00
25664;BME280;13522;50.018;20.014;2022-11-25T05:16:09;98957.42;;;2.31;100.00
25664;BME280;13522;50.018;20.014;2022-11-25T05:19:22;98957.42;;;2.31;100.00
25664;BME280;13522;50.018;20.014;2022-11-25T05:22:35;98954.20;;;2.26;100.00
25664;BME280;13522;50.018;20.014;2022-11-25T05:25:48;98959.53;;;2.25;100.00
25664;BME280;13522;50.018;20.014;2022-11-25T05:29:02;98962.25;;;2.23;100.00
25664;BME280;13522;50.018;20.014;2022-11-25T05:32:14;98958.88;;;2.21;100.00
25664;BME280;13522;50.018;20.014;2022-11-25T05:35:27;98964.96;;;2.22;100.00
25664;BME280;13522;50.018;20.014;2022-11-25T05:38:39;98961.49;;;2.21;100.00
25664;BME280;13522;50.018;20.014;2022-11-25T05:42:00;98964.88;;;2.23;100.00
25664;BME280;13522;50.018;20.014;2022-11-25T05:45:12;98964.88;;;2.23;100.00
25664;BME280;13522;50.018;20.014;2022-11-25T05:48:25;98969.16;;;2.24;100.00
25664;BME280;13522;50.018;20.014;2022-11-25T05:51:36;98978.73;;;2.25;100.00
25664;BME280;13522;50.018;20.014;2022-11-25T05:54:50;98979.48;;;2.27;100.00
25664;BME280;13522;50.018;20.014;2022-11-25T05:58:03;98985.48;;;2.29;100.00
25664;BME280;13522;50.018;20.014;2022-11-25T06:01:16;98989.78;;;2.30;100.00
25664;BME280;13522;50.018;20.014;2022-11-25T06:04:28;98993.16;;;2.32;100.00
25664;BME280;13522;50.018;20.014;2022-11-25T06:07:40;98997.48;;;2.33;100.00
25664;BME280;13522;50.018;20.014;2022-11-25T06:10:53;98999.16;;;2.34;100.00
25664;BME280;13522;50.018;20.014;2022-11-25T06:14:05;98988.77;;;2.33;100.00
25664;BME280;13522;50.018;20.014;2022-11-25T06:17:17;98995.63;;;2.35;100.00
25664;BME280;13522;50.018;20.014;2022-11-25T06:20:31;98999.83;;;2.38;100.00
25664;BME280;13522;50.018;20.014;2022-11-25T06:23:43;99006.67;;;2.40;100.00
25664;BME280;13522;50.018;20.014;2022-11-25T06:26:56;99005.77;;;2.41;100.00
25664;BME280;13522;50.018;20.014;2022-11-25T06:30:10;99006.42;;;2.45;100.00
25664;BME280;13522;50.018;20.014;2022-11-25T06:33:25;99006.23;;;2.48;100.00
25664;BME280;13522;50.018;20.014;2022-11-25T06:36:39;99008.80;;;2.49;100.00
25664;BME280;13522;50.018;20.014;2022-11-25T06:39:50;99014.86;;;2.50;100.00
25664;BME280;13522;50.018;20.014;2022-11-25T06:43:04;99012.99;;;2.52;100.00
25664;BME280;13522;50.018;20.014;2022-11-25T06:46:18;99014.70;;;2.53;100.00
25664;BME280;13522;50.018;20.014;2022-11-25T06:49:31;99016.22;;;2.57;100.00
25664;BME280;13522;50.018;20.014;2022-11-25T06:52:42;99019.50;;;2.60;100.00
25664;BME280;13522;50.018;20.014;2022-11-25T06:56:07;99025.50;;;2.62;100.00
25664;BME280;13522;50.018;20.014;2022-11-25T06:59:21;99023.45;;;2.68;100.00
25664;BME280;13522;50.018;20.014;2022-11-25T07:02:33;99033.78;;;2.71;100.00
25664;BME280;13522;50.018;20.014;2022-11-25T07:05:47;99025.81;;;2.72;100.00
25664;BME280;13522;50.018;20.014;2022-11-25T07:09:00;99027.52;;;2.73;100.00
25664;BME280;13522;50.018;20.014;2022-11-25T07:12:12;99021.23;;;2.76;100.00
25664;BME280;13522;50.018;20.014;2022-11-25T07:15:24;99026.31;;;2.79;100.00
25664;BME280;13522;50.018;20.014;2022-11-25T07:18:37;99022.59;;;2.83;100.00
25664;BME280;13522;50.018;20.014;2022-11-25T07:21:49;99027.64;;;2.86;100.00
25664;BME280;13522;50.018;20.014;2022-11-25T07:25:01;99023.34;;;2.85;100.00
25664;BME280;13522;50.018;20.014;2022-11-25T07:28:14;99041.51;;;2.88;100.00
25664;BME280;13522;50.018;20.014;2022-11-25T07:31:27;99037.02;;;2.90;100.00
25664;BME280;13522;50.018;20.014;2022-11-25T07:34:40;99030.09;;;2.89;100.00
25664;BME280;13522;50.018;20.014;2022-11-25T07:37:52;99040.59;;;2.89;100.00
25664;BME280;13522;50.018;20.014;2022-11-25T07:41:09;99038.53;;;2.94;100.00
25664;BME280;13522;50.018;20.014;2022-11-25T07:44:22;99045.29;;;2.98;100.00
25664;BME280;13522;50.018;20.014;2022-11-25T07:47:42;99040.80;;;3.00;100.00
25664;BME280;13522;50.018;20.014;2022-11-25T07:50:53;99048.41;;;3.04;100.00
25664;BME280;13522;50.018;20.014;2022-11-25T07:54:07;99049.06;;;3.08;100.00
25664;BME280;13522;50.018;20.014;2022-11-25T07:57:20;99051.44;;;3.12;100.00
25664;BME280;13522;50.018;20.014;2022-11-25T08:00:32;99053.95;;;3.14;100.00
25664;BME280;13522;50.018;20.014;2022-11-25T08:03:45;99061.57;;;3.18;100.00
25664;BME280;13522;50.018;20.014;2022-11-25T08:06:58;99065.97;;;3.18;100.00
25664;BME280;13522;50.018;20.014;2022-11-25T08:10:11;99071.05;;;3.21;100.00
25664;BME280;13522;50.018;20.014;2022-11-25T08:13:23;99075.55;;;3.19;100.00
25664;BME280;13522;50.018;20.014;2022-11-25T08:16:35;99074.03;;;3.15;100.00
25664;BME280;13522;50.018;20.014;2022-11-25T08:19:47;99074.09;;;3.13;100.00
25664;BME280;13522;50.018;20.014;2022-11-25T08:22:59;99070.66;;;3.13;100.00
25664;BME280;13522;50.018;20.014;2022-11-25T08:26:12;99076.72;;;3.13;100.00
25664;BME280;13522;50.018;20.014;2022-11-25T08:29:25;99080.10;;;3.15;100.00
25664;BME280;13522;50.018;20.014;2022-11-25T08:32:39;99083.08;;;3.09;100.00
25664;BME280;13522;50.018;20.014;2022-11-25T08:35:54;99081.56;;;3.05;100.00
25664;BME280;13522;50.018;20.014;2022-11-25T08:39:07;99090.29;;;3.06;100.00
25664;BME280;13522;50.018;20.014;2022-11-25T08:42:21;99092.16;;;3.04;100.00
25664;BME280;13522;50.018;20.014;2022-11-25T08:45:33;99085.99;;;3.05;100.00
25664;BME280;13522;50.018;20.014;2022-11-25T08:48:45;99089.38;;;3.07;100.00
25664;BME280;13522;50.018;20.014;2022-11-25T08:51:56;99083.27;;;3.06;100.00
25664;BME280;13522;50.018;20.014;2022-11-25T08:55:09;99092.75;;;3.09;100.00
25664;BME280;13522;50.018;20.014;2022-11-25T08:58:21;99091.05;;;3.08;100.00
25664;BME280;13522;50.018;20.014;2022-11-25T09:01:33;99093.67;;;3.08;100.00
25664;BME280;13522;50.018;20.014;2022-11-25T09:04:45;99095.28;;;3.10;100.00
25664;BME280;13522;50.018;20.014;2022-11-25T09:07:57;99087.16;;;3.15;100.00
25664;BME280;13522;50.018;20.014;2022-11-25T09:11:10;99107.41;;;3.27;100.00
25664;BME280;13522;50.018;20.014;2022-11-25T09:14:23;99098.42;;;3.31;100.00
25664;BME280;13522;50.018;20.014;2022-11-25T09:17:35;99109.67;;;3.33;100.00
25664;BME280;13522;50.018;20.014;2022-11-25T09:20:47;99098.16;;;3.35;100.00
25664;BME280;13522;50.018;20.014;2022-11-25T09:23:59;99103.31;;;3.37;100.00
25664;BME280;13522;50.018;20.014;2022-11-25T09:27:11;99106.33;;;3.45;100.00
25664;BME280;13522;50.018;20.014;2022-11-25T09:30:23;99107.77;;;3.50;100.00
25664;BME280;13522;50.018;20.014;2022-11-25T09:33:35;99096.78;;;3.44;100.00
25664;BME280;13522;50.018;20.014;2022-11-25T09:36:47;99105.97;;;3.51;100.00
25664;BME280;13522;50.018;20.014;2022-11-25T09:39:59;99110.69;;;3.60;100.00
25664;BME280;13522;50.018;20.014;2022-11-25T09:43:17;99099.98;;;3.63;100.00
25664;BME280;13522;50.018;20.014;2022-11-25T09:46:53;99108.45;;;3.68;100.00
25664;BME280;13522;50.018;20.014;2022-11-25T09:50:14;99109.59;;;3.78;100.00
25664;BME280;13522;50.018;20.014;2022-11-25T09:53:40;99107.98;;;3.76;100.00
25664;BME280;13522;50.018;20.014;2022-11-25T09:56:58;99098.72;;;3.84;100.00
25664;BME280;13522;50.018;20.014;2022-11-25T10:00:16;99101.89;;;3.89;100.00
25664;BME280;13522;50.018;20.014;2022-11-25T10:03:33;99104.63;;;3.88;100.00
25664;BME280;13522;50.018;20.014;2022-11-25T10:06:51;99099.74;;;3.96;100.00
25664;BME280;13522;50.018;20.014;2022-11-25T10:10:12;99107.91;;;4.05;100.00
25664;BME280;13522;50.018;20.014;2022-11-25T10:13:35;99100.56;;;4.10;100.00
25664;BME280;13522;50.018;20.014;2022-11-25T10:16:51;99102.06;;;4.14;100.00
25664;BME280;13522;50.018;20.014;2022-11-25T10:20:11;99099.91;;;4.21;100.00
25664;BME280;13522;50.018;20.014;2022-11-25T10:23:26;99098.68;;;4.26;100.00
25664;BME280;13522;50.018;20.014;2022-11-25T10:26:43;99100.92;;;4.32;100.00
25664;BME280;13522;50.018;20.014;2022-11-25T10:30:03;99095.48;;;4.35;100.00
25664;BME280;13522;50.018;20.014;2022-11-25T10:33:21;99102.42;;;4.36;100.00
25664;BME280;13522;50.018;20.014;2022-11-25T10:36:38;99106.83;;;4.36;100.00
25664;BME280;13522;50.018;20.014;2022-11-25T10:39:51;99103.38;;;4.35;100.00
25664;BME280;13522;50.018;20.014;2022-11-25T10:43:10;99102.69;;;4.46;100.00
25664;BME280;13522;50.018;20.014;2022-11-25T10:46:29;99107.19;;;4.44;100.00
25664;BME280;13522;50.018;20.014;2022-11-25T10:49:49;99107.19;;;4.44;100.00
25664;BME280;13522;50.018;20.014;2022-11-25T10:53:09;99103.53;;;4.47;100.00
25664;BME280;13522;50.018;20.014;2022-11-25T10:56:24;99101.27;;;4.55;100.00
25664;BME280;13522;50.018;20.014;2022-11-25T10:59:37;99098.03;;;4.64;100.00
25664;BME280;13522;50.018;20.014;2022-11-25T11:02:50;99103.65;;;4.72;100.00
25664;BME280;13522;50.018;20.014;2022-11-25T11:06:03;99105.14;;;4.76;100.00
25664;BME280;13522;50.018;20.014;2022-11-25T11:09:38;99103.08;;;4.81;100.00
25664;BME280;13522;50.018;20.014;2022-11-25T11:12:59;99106.56;;;4.81;100.00
25664;BME280;13522;50.018;20.014;2022-11-25T11:16:28;99102.97;;;4.82;100.00
25664;BME280;13522;50.018;20.014;2022-11-25T11:19:41;99099.88;;;4.76;100.00
25664;BME280;13522;50.018;20.014;2022-11-25T11:23:00;99109.38;;;4.78;100.00
25664;BME280;13522;50.018;20.014;2022-11-25T11:26:21;99097.42;;;4.87;100.00
25664;BME280;13522;50.018;20.014;2022-11-25T11:29:35;99100.98;;;4.86;100.00
25664;BME280;13522;50.018;20.014;2022-11-25T11:32:54;99098.67;;;4.81;100.00
25664;BME280;13522;50.018;20.014;2022-11-25T11:36:19;99089.92;;;4.81;100.00
25664;BME280;13522;50.018;20.014;2022-11-25T11:39:53;99094.05;;;4.85;100.00
25664;BME280;13522;50.018;20.014;2022-11-25T11:47:19;99105.39;;;4.85;100.00
25664;BME280;13522;50.018;20.014;2022-11-25T11:50:34;99107.09;;;4.86;100.00
25664;BME280;13522;50.018;20.014;2022-11-25T11:53:54;99102.47;;;4.90;100.00
25664;BME280;13522;50.018;20.014;2022-11-25T11:57:12;99099.84;;;4.90;100.00
25664;BME280;13522;50.018;20.014;2022-11-25T12:00:29;99107.34;;;4.96;100.00
25664;BME280;13522;50.018;20.014;2022-11-25T12:03:48;99107.68;;;5.04;100.00
25664;BME280;13522;50.018;20.014;2022-11-25T12:07:06;99111.40;;;5.14;100.00
25664;BME280;13522;50.018;20.014;2022-11-25T12:10:25;99104.14;;;5.17;100.00
25664;BME280;13522;50.018;20.014;2022-11-25T12:13:42;99109.85;;;5.24;100.00
25664;BME280;13522;50.018;20.014;2022-11-25T12:17:01;99113.97;;;5.28;100.00
25664;BME280;13522;50.018;20.014;2022-11-25T12:20:21;99108.89;;;5.25;100.00
25664;BME280;13522;50.018;20.014;2022-11-25T12:23:43;99115.11;;;5.24;100.00
25664;BME280;13522;50.018;20.014;2022-11-25T12:27:00;99114.16;;;5.25;100.00
25664;BME280;13522;50.018;20.014;2022-11-25T12:30:18;99118.38;;;5.27;100.00
25664;BME280;13522;50.018;20.014;2022-11-25T12:33:33;99120.16;;;5.27;100.00
25664;BME280;13522;50.018;20.014;2022-11-25T12:36:48;99115.01;;;5.25;100.00
25664;BME280;13522;50.018;20.014;2022-11-25T12:40:05;99121.58;;;5.33;100.00
25664;BME280;13522;50.018;20.014;2022-11-25T12:43:26;99120.31;;;5.38;100.00
25664;BME280;13522;50.018;20.014;2022-11-25T12:46:45;99119.17;;;5.42;100.00
25664;BME280;13522;50.018;20.014;2022-11-25T12:49:58;99115.38;;;5.46;100.00
25664;BME280;13522;50.018;20.014;2022-11-25T12:53:13;99118.20;;;5.43;100.00
25664;BME280;13522;50.018;20.014;2022-11-25T12:56:35;99119.91;;;5.44;100.00
25664;BME280;13522;50.018;20.014;2022-11-25T13:00:00;99118.02;;;5.46;100.00
25664;BME280;13522;50.018;20.014;2022-11-25T13:07:32;99120.65;;;5.46;100.00
25664;BME280;13522;50.018;20.014;2022-11-25T13:10:58;99118.87;;;5.47;100.00
25664;BME280;13522;50.018;20.014;2022-11-25T13:14:22;99123.91;;;5.50;100.00
25664;BME280;13522;50.018;20.014;2022-11-25T13:17:38;99119.50;;;5.50;100.00
25664;BME280;13522;50.018;20.014;2022-11-25T13:20:53;99128.14;;;5.52;100.00
25664;BME280;13522;50.018;20.014;2022-11-25T13:24:24;99125.59;;;5.51;100.00
25664;BME280;13522;50.018;20.014;2022-11-25T13:27:54;99122.95;;;5.51;100.00
25664;BME280;13522;50.018;20.014;2022-11-25T13:31:19;99123.80;;;5.51;100.00
25664;BME280;13522;50.018;20.014;2022-11-25T13:34:33;99131.70;;;5.51;100.00
25664;BME280;13522;50.018;20.014;2022-11-25T13:37:45;99125.51;;;5.52;100.00
25664;BME280;13522;50.018;20.014;2022-11-25T13:41:03;99126.44;;;5.51;100.00
25664;BME280;13522;50.018;20.014;2022-11-25T13:44:31;99133.41;;;5.52;100.00
25664;BME280;13522;50.018;20.014;2022-11-25T13:47:46;99136.45;;;5.46;100.00
25664;BME280;13522;50.018;20.014;2022-11-25T13:51:19;99134.97;;;5.42;100.00
25664;BME280;13522;50.018;20.014;2022-11-25T13:54:38;99134.97;;;5.42;100.00
25664;BME280;13522;50.018;20.014;2022-11-25T13:58:05;99134.97;;;5.42;100.00
25664;BME280;13522;50.018;20.014;2022-11-25T14:01:27;99132.44;;;5.41;100.00
25664;BME280;13522;50.018;20.014;2022-11-25T14:04:44;99143.06;;;5.39;100.00
25664;BME280;13522;50.018;20.014;2022-11-25T14:08:04;99131.36;;;5.31;100.00
25664;BME280;13522;50.018;20.014;2022-11-25T14:11:39;99141.27;;;5.40;100.00
25664;BME280;13522;50.018;20.014;2022-11-25T14:15:14;99135.27;;;5.38;100.00
25664;BME280;13522;50.018;20.014;2022-11-25T14:19:04;99144.95;;;5.37;100.00
25664;BME280;13522;50.018;20.014;2022-11-25T14:23:12;99137.79;;;5.39;100.00
25664;BME280;13522;50.018;20.014;2022-11-25T14:26:33;99135.56;;;5.33;100.00
25664;BME280;13522;50.018;20.014;2022-11-25T14:29:51;99151.47;;;5.32;100.00
25664;BME280;13522;50.018;20.014;2022-11-25T14:33:06;99142.94;;;5.28;100.00
25664;BME280;13522;50.018;20.014;2022-11-25T14:36:21;99141.23;;;5.27;100.00
25664;BME280;13522;50.018;20.014;2022-11-25T14:39:38;99148.09;;;5.29;100.00
25664;BME280;13522;50.018;20.014;2022-11-25T14:42:57;99151.02;;;5.25;100.00
25664;BME280;13522;50.018;20.014;2022-11-25T14:46:14;99153.13;;;5.20;100.00
25664;BME280;13522;50.018;20.014;2022-11-25T14:49:44;99152.48;;;5.16;100.00
25664;BME280;13522;50.018;20.014;2022-11-25T14:52:59;99152.88;;;5.10;100.00
25664;BME280;13522;50.018;20.014;2022-11-25T14:56:11;99162.84;;;5.05;100.00
25664;BME280;13522;50.018;20.014;2022-11-25T14:59:26;99158.94;;;4.98;100.00
25664;BME280;13522;50.018;20.014;2022-11-25T15:02:50;99167.12;;;4.94;100.00
25664;BME280;13522;50.018;20.014;2022-11-25T15:06:05;99166.13;;;4.82;100.00
25664;BME280;13522;50.018;20.014;2022-11-25T15:09:22;99163.23;;;4.73;100.00
25664;BME280;13522;50.018;20.014;2022-11-25T15:12:36;99179.41;;;4.67;100.00
25664;BME280;13522;50.018;20.014;2022-11-25T15:15:51;99174.52;;;4.61;100.00
25664;BME280;13522;50.018;20.014;2022-11-25T15:19:05;99177.53;;;4.55;100.00
25664;BME280;13522;50.018;20.014;2022-11-25T15:22:24;99187.41;;;4.51;100.00
25664;BME280;13522;50.018;20.014;2022-11-25T15:25:36;99187.14;;;4.42;100.00
25664;BME280;13522;50.018;20.014;2022-11-25T15:29:00;99190.89;;;4.37;100.00
25664;BME280;13522;50.018;20.014;2022-11-25T15:32:15;99192.39;;;4.27;100.00
25664;BME280;13522;50.018;20.014;2022-11-25T15:35:29;99192.56;;;4.24;100.00
25664;BME280;13522;50.018;20.014;2022-11-25T15:38:44;99198.67;;;4.25;100.00
25664;BME280;13522;50.018;20.014;2022-11-25T15:42:04;99198.84;;;4.22;100.00
25664;BME280;13522;50.018;20.014;2022-11-25T15:45:22;99194.16;;;4.13;100.00
25664;BME280;13522;50.018;20.014;2022-11-25T15:48:36;99192.85;;;4.06;100.00
25664;BME280;13522;50.018;20.014;2022-11-25T15:51:54;99201.00;;;4.01;100.00
25664;BME280;13522;50.018;20.014;2022-11-25T15:55:17;99202.67;;;4.02;100.00
25664;BME280;13522;50.018;20.014;2022-11-25T15:58:32;99197.42;;;4.02;100.00
25664;BME280;13522;50.018;20.014;2022-11-25T16:01:45;99203.73;;;4.00;100.00
25664;BME280;13522;50.018;20.014;2022-11-25T16:08:52;99200.51;;;3.95;100.00
25664;BME280;13522;50.018;20.014;2022-11-25T16:12:13;99200.51;;;3.95;100.00
25664;BME280;13522;50.018;20.014;2022-11-25T16:15:44;99202.22;;;3.96;100.00
25664;BME280;13522;50.018;20.014;2022-11-25T16:19:14;99204.91;;;3.94;100.00
25664;BME280;13522;50.018;20.014;2022-11-25T16:22:27;99206.42;;;3.98;100.00
25664;BME280;13522;50.018;20.014;2022-11-25T16:25:39;99202.22;;;3.96;100.00
25664;BME280;13522;50.018;20.014;2022-11-25T16:28:55;99201.66;;;4.05;100.00
25664;BME280;13522;50.018;20.014;2022-11-25T16:32:14;99201.29;;;4.11;100.00
25664;BME280;13522;50.018;20.014;2022-11-25T16:35:27;99201.19;;;4.12;100.00
25664;BME280;13522;50.018;20.014;2022-11-25T16:38:39;99200.44;;;4.10;100.00
25664;BME280;13522;50.018;20.014;2022-11-25T16:41:57;99200.63;;;4.07;100.00
25664;BME280;13522;50.018;20.014;2022-11-25T16:45:17;99203.36;;;4.06;100.00
25664;BME280;13522;50.018;20.014;2022-11-25T16:48:31;99212.06;;;4.06;100.00
25664;BME280;13522;50.018;20.014;2022-11-25T16:51:46;99215.65;;;4.05;100.00
25664;BME280;13522;50.018;20.014;2022-11-25T16:54:59;99216.87;;;4.00;100.00
25664;BME280;13522;50.018;20.014;2022-11-25T16:58:17;99215.26;;;3.97;100.00
25664;BME280;13522;50.018;20.014;2022-11-25T17:01:31;99221.63;;;3.93;100.00
25664;BME280;13522;50.018;20.014;2022-11-25T17:04:44;99220.88;;;3.91;100.00
25664;BME280;13522;50.018;20.014;2022-11-25T17:07:57;99219.00;;;3.93;100.00
25664;BME280;13522;50.018;20.014;2022-11-25T17:11:14;99227.14;;;3.89;100.00
25664;BME280;13522;50.018;20.014;2022-11-25T17:14:31;99232.30;;;3.90;100.00
25664;BME280;13522;50.018;20.014;2022-11-25T17:17:45;99227.80;;;3.92;100.00